Time;durP1;ratioP1;P1;durP2;ratioP2;P2;SDS_P1;SDS_P2;PMS_P1;PMS_P2;Temp;Humidity;BMP_temperature;BMP_pressure;BME280_temperature;BME280_humidity;BME280_pressure;Samples;Min_cycle;Max_cycle;Signal;HPM_P1;HPM_P2
2023/05/03 00:01:01;;;;;;;;;;;11.40;59.90;;;6.96;100.00;96115.03;5033914;28;19959;-49
2023/05/03 00:03:27;;;;;;;;;;;11.40;59.90;;;6.93;100.00;96112.84;5032509;28;19912;-52
2023/05/03 00:05:53;;;;;;;;;;;11.40;60.00;;;6.84;100.00;96112.38;5034063;28;19915;-50
2023/05/03 00:08:20;;;;;;;;;;;11.30;60.00;;;6.81;100.00;96117.31;5033973;28;19908;-50
2023/05/03 00:10:46;;;;;;;;;;;11.30;60.10;;;6.79;100.00;96114.09;5032859;28;20295;-52
2023/05/03 00:13:12;;;;;;;;;;;11.30;60.20;;;6.75;100.00;96113.72;5033795;28;19916;-48
2023/05/03 00:15:38;;;;;;;;;;;11.20;60.20;;;6.75;100.00;96112.94;5032708;28;19913;-50
2023/05/03 00:18:03;;;;;;;;;;;11.20;60.30;;;6.70;100.00;96114.41;5053813;28;20003;-53
2023/05/03 00:20:30;;;;;;;;;;;11.20;60.40;;;6.72;100.00;96106.25;5053111;28;19915;-55
2023/05/03 00:22:56;;;;;;;;;;;11.20;60.50;;;6.64;100.00;96106.56;5040768;28;19970;-53
2023/05/03 00:25:21;;;;;;;;;;;11.20;60.50;;;6.64;100.00;96102.09;5052010;28;19916;-50
2023/05/03 00:27:47;;;;;;;;;;;11.10;60.50;;;6.64;100.00;96102.09;5029825;28;19908;-48
2023/05/03 00:30:13;;;;;;;;;;;11.10;60.60;;;6.62;100.00;96104.16;5034905;28;19939;-50
2023/05/03 00:32:38;;;;;;;;;;;11.10;60.70;;;6.62;100.00;96100.69;5032914;28;19964;-50
2023/05/03 00:35:05;;;;;;;;;;;11.00;60.60;;;6.62;100.00;96106.81;5017745;28;19912;-48
2023/05/03 00:37:31;;;;;;;;;;;11.10;60.80;;;6.63;100.00;96097.81;5053282;28;19916;-52
2023/05/03 00:39:57;;;;;;;;;;;11.00;60.80;;;6.62;100.00;96096.22;5014993;28;19999;-53
2023/05/03 00:42:23;;;;;;;;;;;11.00;60.90;;;6.62;100.00;96093.56;5030445;28;19983;-50
2023/05/03 00:44:48;;;;;;;;;;;11.00;61.00;;;6.58;100.00;96088.94;5032124;28;19908;-49
2023/05/03 00:47:16;;;;;;;;;;;11.00;61.80;;;6.49;100.00;96097.22;5047537;28;19924;-52
2023/05/03 00:49:43;;;;;;;;;;;10.90;61.00;;;6.47;100.00;96093.19;5053173;28;20371;-51
2023/05/03 00:52:09;;;;;;;;;;;10.90;61.00;;;6.43;100.00;96090.19;5017103;28;20306;-51
2023/05/03 00:54:36;;;;;;;;;;;10.90;61.10;;;6.43;100.00;96094.66;5032653;28;19916;-50
2023/05/03 00:57:04;;;;;;;;;;;10.90;61.10;;;6.40;100.00;96085.34;5031864;28;19909;-50
2023/05/03 00:59:33;;;;;;;;;;;10.90;61.20;;;6.32;100.00;96093.59;5033225;28;19915;-51
2023/05/03 01:01:59;;;;;;;;;;;10.80;61.10;;;6.32;100.00;96090.94;5032659;28;19909;-54
2023/05/03 01:04:25;;;;;;;;;;;10.80;61.10;;;6.30;100.00;96090.38;5031666;28;19977;-53
2023/05/03 01:06:59;;;;;;;;;;;10.80;61.20;;;6.24;100.00;96089.44;5032730;28;19919;-50
2023/05/03 01:09:46;;;;;;;;;;;10.70;61.10;;;6.19;100.00;96089.28;5014170;28;19916;-49
2023/05/03 01:12:54;;;;;;;;;;;10.70;61.10;;;6.09;100.00;96081.06;5021765;28;20003;-50
2023/05/03 01:16:05;;;;;;;;;;;10.70;61.20;;;6.03;100.00;96087.25;5019902;28;20275;-50
2023/05/03 01:18:39;;;;;;;;;;;10.60;61.30;;;6.00;100.00;96087.72;5031631;28;19947;-53
2023/05/03 01:21:07;;;;;;;;;;;10.50;61.40;;;5.99;100.00;96091.41;5012767;28;20334;-51
2023/05/03 01:23:40;;;;;;;;;;;10.50;61.50;;;5.95;100.00;96088.34;5052446;23;20019;-49
2023/05/03 01:26:26;;;;;;;;;;;10.50;61.50;;;5.96;100.00;96084.72;5049650;28;20371;-49
2023/05/03 01:28:54;;;;;;;;;;;10.40;61.60;;;5.92;100.00;96085.31;5028279;28;20454;-49
2023/05/03 01:31:33;;;;;;;;;;;10.40;61.60;;;5.94;100.00;96084.13;5030121;28;20363;-52
2023/05/03 01:34:24;;;;;;;;;;;10.40;61.80;;;5.91;100.00;96079.25;5030579;28;20325;-51
2023/05/03 01:36:56;;;;;;;;;;;10.40;61.90;;;5.90;100.00;96080.28;5014442;28;19913;-51
2023/05/03 01:39:37;;;;;;;;;;;10.40;62.00;;;5.90;100.00;96069.69;5018324;28;19908;-51
2023/05/03 01:42:04;;;;;;;;;;;10.40;62.00;;;5.90;100.00;96068.91;5030009;28;20167;-50
2023/05/03 01:44:31;;;;;;;;;;;10.40;62.00;;;5.87;100.00;96077.28;5032205;28;20283;-53
2023/05/03 01:46:57;;;;;;;;;;;10.30;62.00;;;5.87;100.00;96074.63;5030675;28;20383;-52
2023/05/03 01:49:23;;;;;;;;;;;10.30;62.20;;;5.87;100.00;96067.50;5031830;28;19920;-50
2023/05/03 01:51:48;;;;;;;;;;;10.30;62.20;;;5.91;100.00;96070.50;5035058;28;19913;-50
2023/05/03 01:54:15;;;;;;;;;;;10.30;62.40;;;5.86;100.00;96059.78;5032344;28;19908;-51
2023/05/03 01:56:40;;;;;;;;;;;10.30;62.40;;;5.88;100.00;96065.66;5034494;28;19928;-53
2023/05/03 01:59:06;;;;;;;;;;;10.30;62.40;;;5.83;100.00;96066.34;5030851;28;19909;-50
2023/05/03 02:01:32;;;;;;;;;;;10.30;62.40;;;5.84;100.00;96065.31;5031685;28;19908;-49
2023/05/03 02:03:58;;;;;;;;;;;10.30;62.40;;;5.82;100.00;96061.25;5039257;28;19961;-49
2023/05/03 02:06:25;;;;;;;;;;;10.30;62.40;;;5.82;100.00;96062.06;5051956;28;19944;-51
2023/05/03 02:08:51;;;;;;;;;;;10.30;62.40;;;5.77;100.00;96067.22;5050545;28;19912;-53
2023/05/03 02:11:17;;;;;;;;;;;10.20;62.30;;;5.74;100.00;96067.66;5047505;28;19955;-49
2023/05/03 02:13:43;;;;;;;;;;;10.20;62.30;;;5.72;100.00;96069.72;5051266;28;20390;-51
2023/05/03 02:16:08;;;;;;;;;;;10.20;62.40;;;5.73;100.00;96066.84;5047382;28;20968;-52
2023/05/03 02:18:35;;;;;;;;;;;10.10;62.40;;;5.71;100.00;96076.03;5031506;28;20517;-50
2023/05/03 02:21:01;;;;;;;;;;;10.10;62.40;;;5.66;100.00;96076.69;5029687;28;20367;-50
2023/05/03 02:23:27;;;;;;;;;;;10.10;62.40;;;5.63;100.00;96085.06;5038474;28;19923;-49
2023/05/03 02:25:52;;;;;;;;;;;10.10;62.50;;;5.58;100.00;96082.28;5035879;28;19913;-51
2023/05/03 02:28:18;;;;;;;;;;;10.10;62.50;;;5.56;100.00;96074.56;5033697;28;19915;-50
2023/05/03 02:30:44;;;;;;;;;;;10.10;62.50;;;5.53;100.00;96074.22;5030852;28;20278;-50
2023/05/03 02:33:09;;;;;;;;;;;10.10;62.60;;;5.53;100.00;96067.06;5029826;28;19970;-50
2023/05/03 02:35:35;;;;;;;;;;;10.00;62.60;;;5.48;100.00;96066.13;5032177;28;19917;-49
2023/05/03 02:38:01;;;;;;;;;;;10.00;62.50;;;5.47;100.00;96069.81;5042797;28;19916;-51
2023/05/03 02:40:26;;;;;;;;;;;10.00;62.60;;;5.39;100.00;96065.63;5029609;28;20020;-49
2023/05/03 02:42:52;;;;;;;;;;;9.90;62.50;;;5.33;100.00;96062.03;5030486;28;20352;-49
2023/05/03 02:45:18;;;;;;;;;;;9.90;62.50;;;5.30;100.00;96074.88;5031782;28;19908;-49
2023/05/03 02:47:44;;;;;;;;;;;9.80;62.50;;;5.26;100.00;96065.75;5039205;28;19908;-49
2023/05/03 02:50:10;;;;;;;;;;;9.80;62.50;;;5.23;100.00;96072.28;5036062;28;19934;-52
2023/05/03 02:52:35;;;;;;;;;;;9.80;62.60;;;5.18;100.00;96076.63;5039182;28;19916;-51
2023/05/03 02:55:01;;;;;;;;;;;9.80;62.60;;;5.15;100.00;96071.75;5036329;28;19909;-52
2023/05/03 02:57:27;;;;;;;;;;;9.70;62.60;;;5.08;100.00;96071.84;5033493;28;19915;-52
2023/05/03 02:59:52;;;;;;;;;;;9.70;62.70;;;5.08;100.00;96067.34;5035951;28;20000;-52
2023/05/03 03:02:18;;;;;;;;;;;9.60;62.60;;;5.06;100.00;96066.75;5038540;28;19931;-52
2023/05/03 03:04:44;;;;;;;;;;;9.60;62.80;;;5.06;100.00;96063.31;5034854;28;19958;-54
2023/05/03 03:07:09;;;;;;;;;;;9.60;62.80;;;4.98;100.00;96060.94;5030984;28;19958;-51
2023/05/03 03:09:35;;;;;;;;;;;9.50;62.70;;;4.89;100.00;96057.78;5029763;28;20386;-49
2023/05/03 03:12:02;;;;;;;;;;;9.50;62.80;;;4.81;100.00;96064.13;5030163;28;20268;-49
2023/05/03 03:14:28;;;;;;;;;;;9.50;62.80;;;4.80;100.00;96067.00;5013221;28;19909;-50
2023/05/03 03:16:54;;;;;;;;;;;9.40;62.80;;;4.82;100.00;96064.94;5029977;28;20394;-49
2023/05/03 03:19:20;;;;;;;;;;;9.40;63.00;;;4.79;100.00;96060.88;5030662;28;19909;-49
2023/05/03 03:21:46;;;;;;;;;;;9.40;62.90;;;4.72;100.00;96059.34;5029167;28;19908;-49
2023/05/03 03:24:12;;;;;;;;;;;9.30;62.90;;;4.69;100.00;96065.84;5045798;28;19935;-49
2023/05/03 03:26:38;;;;;;;;;;;9.30;63.20;;;4.69;100.00;96057.13;5031664;28;20007;-48
2023/05/03 03:29:04;;;;;;;;;;;9.30;63.00;;;4.66;100.00;96066.28;5029962;28;20043;-49
2023/05/03 03:31:30;;;;;;;;;;;9.20;63.10;;;4.68;100.00;96060.81;5036758;28;19913;-50
2023/05/03 03:33:55;;;;;;;;;;;9.20;63.20;;;4.74;100.00;96063.38;5037736;28;19912;-52
2023/05/03 03:36:21;;;;;;;;;;;9.20;63.30;;;4.74;100.00;96060.75;5031393;28;19909;-49
2023/05/03 03:38:47;;;;;;;;;;;9.20;63.40;;;4.71;100.00;96061.19;5030517;28;19913;-48
2023/05/03 03:41:13;;;;;;;;;;;9.20;63.40;;;4.72;100.00;96057.50;5030074;28;19932;-49
2023/05/03 03:43:38;;;;;;;;;;;9.20;63.40;;;4.70;100.00;96067.50;5012570;28;19909;-51
2023/05/03 03:46:04;;;;;;;;;;;9.20;63.50;;;4.71;100.00;96066.47;5033905;28;19912;-53
2023/05/03 03:48:30;;;;;;;;;;;9.20;63.50;;;4.72;100.00;96059.34;5030409;28;19996;-49
2023/05/03 03:50:56;;;;;;;;;;;9.10;63.50;;;4.76;100.00;96058.69;5029365;28;19913;-49
2023/05/03 03:53:22;;;;;;;;;;;9.10;63.60;;;4.79;100.00;96052.97;5029474;28;19919;-48
2023/05/03 03:55:48;;;;;;;;;;;9.10;63.60;;;4.76;100.00;96057.88;5033493;28;19920;-49
2023/05/03 03:58:13;;;;;;;;;;;9.20;63.70;;;4.70;100.00;96064.03;5043446;28;19916;-49
2023/05/03 04:00:39;;;;;;;;;;;9.20;63.70;;;4.72;100.00;96075.19;5035098;28;20011;-50
2023/05/03 04:03:05;;;;;;;;;;;9.10;63.60;;;4.69;100.00;96065.84;5033448;28;19993;-49
2023/05/03 04:05:31;;;;;;;;;;;9.10;63.50;;;4.68;100.00;96064.25;5040109;28;19908;-49
2023/05/03 04:07:57;;;;;;;;;;;9.20;63.60;;;4.70;100.00;96067.50;5041792;28;19958;-49
2023/05/03 04:10:23;;;;;;;;;;;9.20;63.60;;;4.69;100.00;96065.06;5038619;28;19912;-49
2023/05/03 04:12:49;;;;;;;;;;;9.20;63.70;;;4.65;100.00;96062.03;5033348;28;19916;-48
2023/05/03 04:15:14;;;;;;;;;;;9.20;63.70;;;4.72;100.00;96057.50;5043396;28;19939;-50
2023/05/03 04:17:40;;;;;;;;;;;9.20;63.80;;;4.85;100.00;96067.13;5025905;28;20394;-48
2023/05/03 04:20:09;;;;;;;;;;;9.20;64.00;;;5.00;100.00;96064.19;5033456;28;20000;-49
2023/05/03 04:22:38;;;;;;;;;;;9.30;64.20;;;5.09;100.00;96063.69;5031548;28;19932;-49
2023/05/03 04:25:05;;;;;;;;;;;9.40;64.40;;;5.32;100.00;96075.44;5037980;28;19969;-49
2023/05/03 04:27:32;;;;;;;;;;;9.40;64.50;;;5.44;100.00;96075.53;5037005;28;20008;-49
2023/05/03 04:29:58;;;;;;;;;;;9.60;64.60;;;5.49;100.00;96073.84;5033151;28;19951;-49
2023/05/03 04:32:24;;;;;;;;;;;9.70;64.70;;;5.53;100.00;96069.72;5032908;28;19913;-51
2023/05/03 04:34:51;;;;;;;;;;;9.70;64.60;;;5.59;100.00;96065.41;5031870;28;19913;-49
2023/05/03 04:37:20;;;;;;;;;;;9.90;64.70;;;5.67;100.00;96072.22;5046417;28;19908;-50
2023/05/03 04:39:46;;;;;;;;;;;10.00;64.70;;;5.73;100.00;96073.97;5032658;28;19913;-49
2023/05/03 04:42:15;;;;;;;;;;;10.00;64.70;;;5.81;100.00;96076.31;5046018;28;19914;-49
2023/05/03 04:44:41;;;;;;;;;;;10.20;64.70;;;5.89;100.00;96070.75;5033418;28;19909;-50
2023/05/03 04:47:07;;;;;;;;;;;10.30;64.80;;;6.01;100.00;96070.81;5035738;28;20305;-50
2023/05/03 04:49:33;;;;;;;;;;;10.40;64.80;;;6.09;100.00;96067.84;5044838;28;19952;-50
2023/05/03 04:52:00;;;;;;;;;;;10.50;65.80;;;6.16;100.00;96067.75;5031535;28;19908;-51
2023/05/03 04:54:26;;;;;;;;;;;10.60;64.90;;;6.21;100.00;96074.00;5045655;28;19995;-51
2023/05/03 04:56:54;;;;;;;;;;;10.70;64.90;;;6.31;100.00;96070.81;5046035;28;19914;-49
2023/05/03 04:59:20;;;;;;;;;;;10.80;64.90;;;6.38;100.00;96079.44;5039607;28;19908;-49
2023/05/03 05:01:46;;;;;;;;;;;10.90;65.60;;;6.40;100.00;96079.25;5052186;28;19965;-49
2023/05/03 05:04:12;;;;;;;;;;;11.00;64.70;;;6.45;100.00;96085.44;5050998;28;20279;-50
2023/05/03 05:06:38;;;;;;;;;;;11.10;64.70;;;6.49;100.00;96089.28;5052609;28;19944;-49
2023/05/03 05:09:06;;;;;;;;;;;11.20;64.50;;;6.53;100.00;96094.91;5051051;28;20372;-50
2023/05/03 05:11:33;;;;;;;;;;;11.30;64.50;;;6.53;100.00;96089.63;5032135;28;20010;-49
2023/05/03 05:13:59;;;;;;;;;;;11.30;64.40;;;6.55;100.00;96087.56;5032566;28;20003;-50
2023/05/03 05:16:25;;;;;;;;;;;11.50;64.40;;;6.63;100.00;96092.53;5023421;28;20019;-49
2023/05/03 05:18:51;;;;;;;;;;;11.50;64.20;;;6.70;100.00;96097.72;5027608;28;19943;-50
2023/05/03 05:21:16;;;;;;;;;;;11.60;64.20;;;6.73;100.00;96110.50;5030290;28;20325;-49
2023/05/03 05:23:42;;;;;;;;;;;11.70;64.10;;;6.79;100.00;96114.09;5040287;28;19917;-49
2023/05/03 05:26:08;;;;;;;;;;;11.80;64.10;;;6.77;100.00;96110.84;5028563;28;19924;-51
2023/05/03 05:28:34;;;;;;;;;;;11.80;63.90;;;6.75;100.00;96115.56;5036591;28;20215;-51
2023/05/03 05:30:59;;;;;;;;;;;11.90;63.90;;;6.80;100.00;96118.34;5032301;28;19909;-49
2023/05/03 05:33:25;;;;;;;;;;;12.00;63.80;;;6.88;100.00;96123.31;5027265;28;19909;-49
2023/05/03 05:35:51;;;;;;;;;;;12.00;63.80;;;6.89;100.00;96123.09;5032571;28;19952;-49
2023/05/03 05:38:17;;;;;;;;;;;12.10;63.80;;;6.94;100.00;96122.41;5052156;28;19999;-50
2023/05/03 05:40:43;;;;;;;;;;;12.10;63.70;;;6.87;100.00;96119.88;5035714;28;19909;-50
2023/05/03 05:43:09;;;;;;;;;;;12.20;63.70;;;6.83;100.00;96125.81;5031812;28;19909;-48
2023/05/03 05:45:35;;;;;;;;;;;12.20;63.60;;;6.93;100.00;96118.16;5034621;28;20350;-49
2023/05/03 05:48:01;;;;;;;;;;;12.30;63.60;;;6.94;100.00;96123.22;5032094;28;19955;-49
2023/05/03 05:50:27;;;;;;;;;;;12.30;63.50;;;7.09;100.00;96129.91;5032120;28;19939;-50
2023/05/03 05:52:53;;;;;;;;;;;12.40;63.50;;;7.14;100.00;96122.06;5033768;28;19916;-49
2023/05/03 05:55:19;;;;;;;;;;;12.50;63.40;;;7.10;100.00;96120.94;5031747;28;19912;-50
2023/05/03 05:57:45;;;;;;;;;;;12.60;63.30;;;7.04;100.00;96127.13;5030428;28;19912;-52
2023/05/03 06:00:16;;;;;;;;;;;12.60;63.20;;;7.02;100.00;96132.69;5014107;28;19913;-53
2023/05/03 06:02:43;;;;;;;;;;;12.60;63.00;;;7.09;100.00;96127.28;5031964;28;20003;-51
2023/05/03 06:05:12;;;;;;;;;;;12.70;63.00;;;6.98;100.00;96120.91;5014517;28;19955;-51
2023/05/03 06:07:38;;;;;;;;;;;12.70;62.90;;;7.15;100.00;96123.69;5031780;28;19992;-51
2023/05/03 06:10:04;;;;;;;;;;;12.80;63.00;;;7.19;100.00;96125.66;5006907;28;26744;-49
2023/05/03 06:12:30;;;;;;;;;;;12.80;63.00;;;7.02;100.00;96124.72;5030844;28;19909;-50
2023/05/03 06:14:56;;;;;;;;;;;12.80;62.90;;;7.16;100.00;96117.34;5030807;28;20000;-50
2023/05/03 06:17:22;;;;;;;;;;;12.80;62.90;;;7.27;100.00;96116.56;5031234;28;20360;-50
2023/05/03 06:19:48;;;;;;;;;;;12.80;62.90;;;7.29;100.00;96121.63;5026770;28;19909;-51
2023/05/03 06:22:17;;;;;;;;;;;12.80;63.00;;;7.31;100.00;96119.56;5020961;28;19923;-51
2023/05/03 06:24:42;;;;;;;;;;;12.90;63.00;;;7.40;100.00;96118.19;5044350;28;19916;-51
2023/05/03 06:27:08;;;;;;;;;;;12.90;63.00;;;7.38;100.00;96115.75;5036314;28;19957;-49
2023/05/03 06:29:34;;;;;;;;;;;12.90;62.90;;;7.39;100.00;96119.19;5037491;28;20706;-51
2023/05/03 06:32:00;;;;;;;;;;;13.00;62.90;;;7.49;100.00;96123.91;5032673;28;19962;-49
2023/05/03 06:34:26;;;;;;;;;;;13.00;62.80;;;7.41;100.00;96125.88;5038130;28;19913;-49
2023/05/03 06:36:52;;;;;;;;;;;13.10;62.80;;;7.41;100.00;96119.78;5031385;28;19918;-50
2023/05/03 06:39:17;;;;;;;;;;;13.20;62.80;;;7.51;100.00;96125.31;5029998;28;20458;-49
2023/05/03 06:41:43;;;;;;;;;;;13.20;62.70;;;7.51;100.00;96127.94;5020527;28;19958;-53
2023/05/03 06:44:09;;;;;;;;;;;13.20;62.70;;;7.51;100.00;96119.19;5021049;28;20290;-52
2023/05/03 06:46:35;;;;;;;;;;;13.30;62.70;;;7.57;100.00;96126.22;5027317;28;19923;-50
2023/05/03 06:49:01;;;;;;;;;;;13.30;62.60;;;7.82;100.00;96131.28;5031154;28;20371;-49
2023/05/03 06:51:28;;;;;;;;;;;13.50;62.60;;;7.75;100.00;96125.28;5028598;28;19916;-51
2023/05/03 06:54:05;;;;;;;;;;;13.60;62.60;;;7.91;100.00;96127.22;5032552;28;19915;-52
2023/05/03 06:56:35;;;;;;;;;;;13.70;62.40;;;7.84;100.00;96122.03;5040667;28;20003;-50
2023/05/03 06:59:02;;;;;;;;;;;13.80;62.20;;;8.00;100.00;96125.00;5037921;28;19908;-49
2023/05/03 07:01:29;;;;;;;;;;;13.90;62.10;;;8.12;100.00;96120.47;5030402;28;19912;-50
2023/05/03 07:03:55;;;;;;;;;;;14.10;62.10;;;8.18;100.00;96121.38;5033911;28;20015;-54
2023/05/03 07:06:24;;;;;;;;;;;14.20;62.00;;;8.15;100.00;96116.53;5036277;28;19999;-49
2023/05/03 07:08:51;;;;;;;;;;;14.30;61.80;;;8.19;100.00;96121.16;5050312;28;20309;-51
2023/05/03 07:11:23;;;;;;;;;;;14.30;61.60;;;8.31;100.00;96116.59;5021352;28;19908;-49
2023/05/03 07:13:50;;;;;;;;;;;14.50;61.60;;;8.28;100.00;96118.94;5030804;28;19909;-49
2023/05/03 07:16:20;;;;;;;;;;;14.60;61.30;;;8.45;100.00;96121.66;5029661;28;19932;-49
2023/05/03 07:18:47;;;;;;;;;;;14.60;61.10;;;8.30;100.00;96115.00;5027678;28;20363;-48
2023/05/03 07:21:14;;;;;;;;;;;14.70;61.10;;;8.47;100.00;96101.78;5047886;28;19912;-52
2023/05/03 07:23:40;;;;;;;;;;;14.80;60.90;;;8.42;100.00;96101.69;5029472;23;19960;-59
2023/05/03 07:26:07;;;;;;;;;;;14.90;60.70;;;8.58;100.00;96106.22;4992212;28;19913;-59
2023/05/03 07:28:33;;;;;;;;;;;14.90;60.60;;;8.68;100.00;96099.47;5012948;28;19916;-59
2023/05/03 07:30:59;;;;;;;;;;;15.00;60.60;;;8.86;100.00;96104.56;5016432;28;19913;-58
2023/05/03 07:33:25;;;;;;;;;;;15.10;60.50;;;8.90;100.00;96097.75;4988779;28;19910;-54
2023/05/03 07:35:51;;;;;;;;;;;15.20;60.50;;;8.89;100.00;96104.09;5010381;28;19924;-57
2023/05/03 07:38:17;;;;;;;;;;;15.30;60.30;;;9.25;100.00;96100.16;5015761;28;19909;-57
2023/05/03 07:40:43;;;;;;;;;;;15.40;61.20;;;9.32;98.88;96101.84;5002421;28;19971;-54
2023/05/03 07:43:09;;;;;;;;;;;15.60;60.50;;;9.31;99.54;96102.88;5015564;28;19958;-52
2023/05/03 07:45:38;;;;;;;;;;;15.80;60.20;;;9.52;96.93;96098.66;5011074;28;19914;-59
2023/05/03 07:48:05;;;;;;;;;;;16.00;59.90;;;9.60;95.86;96092.94;5014250;28;20000;-56
2023/05/03 07:50:31;;;;;;;;;;;16.20;59.80;;;9.65;95.64;96090.31;5015129;28;19913;-56
2023/05/03 07:52:57;;;;;;;;;;;16.30;59.40;;;9.56;96.65;96089.97;5006826;28;19920;-58
2023/05/03 07:55:24;;;;;;;;;;;16.40;59.20;;;9.68;94.80;96088.00;5015219;28;19909;-59
2023/05/03 07:57:50;;;;;;;;;;;16.50;59.00;;;9.87;94.54;96079.69;5002655;28;20008;-55
2023/05/03 08:00:16;;;;;;;;;;;16.70;58.80;;;10.20;93.87;96073.44;5010725;28;19917;-58
2023/05/03 08:02:42;;;;;;;;;;;16.90;58.60;;;10.16;92.94;96072.31;5015053;28;19959;-55
2023/05/03 08:05:13;;;;;;;;;;;17.10;58.40;;;10.09;92.46;96074.34;5010652;28;19913;-57
2023/05/03 08:07:39;;;;;;;;;;;17.30;58.20;;;10.21;92.92;96069.69;5015198;28;19909;-54
2023/05/03 08:10:06;;;;;;;;;;;17.40;58.00;;;10.29;90.91;96071.97;5007195;28;19913;-55
2023/05/03 08:12:32;;;;;;;;;;;17.50;57.60;;;10.46;91.38;96071.06;5003696;28;19962;-56
2023/05/03 08:14:57;;;;;;;;;;;17.60;57.70;;;10.40;88.92;96065.69;5000268;28;19912;-58
2023/05/03 08:17:23;;;;;;;;;;;17.70;57.50;;;10.54;88.42;96067.94;5003939;28;19931;-53
2023/05/03 08:19:49;;;;;;;;;;;17.60;57.40;;;10.21;89.83;96072.38;5015230;28;19931;-54
2023/05/03 08:22:15;;;;;;;;;;;17.60;57.20;;;10.27;89.60;96070.59;5006905;28;20024;-53
2023/05/03 08:24:42;;;;;;;;;;;17.40;57.20;;;9.80;92.83;96073.75;5013649;28;20011;-55
2023/05/03 08:27:09;;;;;;;;;;;17.30;57.00;;;10.30;89.57;96072.75;5010430;28;19909;-56
2023/05/03 08:29:38;;;;;;;;;;;17.50;57.00;;;10.50;87.86;96062.31;5014057;28;19913;-53
2023/05/03 08:32:04;;;;;;;;;;;17.60;57.00;;;10.10;89.14;96066.13;5001612;28;20008;-53
2023/05/03 08:34:31;;;;;;;;;;;17.60;56.70;;;10.43;86.51;96061.69;5012908;28;19995;-57
2023/05/03 08:36:57;;;;;;;;;;;17.60;56.60;;;10.74;85.75;96060.13;5014702;28;19920;-53
2023/05/03 08:39:25;;;;;;;;;;;17.80;56.40;;;10.86;86.80;96062.63;5009354;28;19910;-57
2023/05/03 08:41:53;;;;;;;;;;;17.80;56.40;;;10.39;88.55;96068.59;5007587;28;19912;-51
2023/05/03 08:44:22;;;;;;;;;;;17.80;56.30;;;10.46;88.36;96063.06;5013213;28;20032;-56
2023/05/03 08:46:51;;;;;;;;;;;17.80;56.10;;;10.91;85.78;96054.69;5012472;28;19913;-55
2023/05/03 08:49:17;;;;;;;;;;;18.00;55.90;;;11.11;84.37;96046.03;5014080;28;19913;-58
2023/05/03 08:51:48;;;;;;;;;;;18.40;55.70;;;11.11;84.78;96041.50;5011458;28;19970;-56
2023/05/03 08:54:20;;;;;;;;;;;18.70;55.40;;;11.69;81.82;96040.75;5014290;28;19909;-54
2023/05/03 08:56:46;;;;;;;;;;;19.00;55.10;;;12.03;80.35;96047.34;5011481;28;19909;-56
2023/05/03 08:59:15;;;;;;;;;;;19.20;54.50;;;11.78;79.91;96036.50;5010936;28;20364;-53
2023/05/03 09:01:42;;;;;;;;;;;19.40;54.30;;;11.89;80.22;96032.84;5014153;28;19921;-54
2023/05/03 09:04:10;;;;;;;;;;;19.40;54.00;;;11.75;81.34;96034.34;5012394;28;19920;-56
2023/05/03 09:06:37;;;;;;;;;;;19.40;53.80;;;11.74;80.03;96032.78;5013959;28;19909;-54
2023/05/03 09:09:08;;;;;;;;;;;19.50;53.40;;;11.82;79.52;96038.41;5011755;28;19909;-51
2023/05/03 09:11:38;;;;;;;;;;;19.60;53.10;;;12.06;79.77;96035.31;5004169;28;19909;-53
2023/05/03 09:14:21;;;;;;;;;;;19.80;52.90;;;12.21;78.53;96050.56;5013775;28;20392;-55
2023/05/03 09:16:47;;;;;;;;;;;20.10;52.80;;;11.94;80.66;96040.91;5012917;28;20240;-55
2023/05/03 09:19:15;;;;;;;;;;;20.20;52.40;;;12.43;79.16;96047.69;5013856;28;19916;-52
2023/05/03 09:21:43;;;;;;;;;;;20.30;52.20;;;12.62;78.19;96038.09;5003820;28;20005;-57
2023/05/03 09:24:21;;;;;;;;;;;20.50;52.30;;;12.72;78.25;96043.47;5001265;28;19917;-52
2023/05/03 09:26:50;;;;;;;;;;;20.70;52.00;;;12.96;77.47;96056.28;5013599;28;19916;-55
2023/05/03 09:29:31;;;;;;;;;;;20.90;51.90;;;13.32;76.19;96049.09;5009222;28;19913;-56
2023/05/03 09:32:05;;;;;;;;;;;21.00;51.70;;;13.64;75.04;96047.94;5012089;28;19919;-53
2023/05/03 09:34:32;;;;;;;;;;;21.30;51.70;;;14.20;71.97;96057.63;5004822;28;20421;-53
2023/05/03 09:36:58;;;;;;;;;;;21.50;51.60;;;14.51;71.87;96034.16;5013232;28;20003;-53
2023/05/03 09:39:24;;;;;;;;;;;21.80;51.30;;;14.71;71.60;96046.63;5008693;28;19988;-57
2023/05/03 09:41:50;;;;;;;;;;;22.00;50.80;;;14.94;71.16;96037.84;4993258;28;19988;-54
2023/05/03 09:44:16;;;;;;;;;;;22.20;50.50;;;15.22;70.21;96035.47;5008479;28;19909;-57
2023/05/03 09:47:23;;;;;;;;;;;22.50;50.30;;;14.80;70.11;96037.69;5011480;28;19913;-56
2023/05/03 09:49:49;;;;;;;;;;;22.70;49.70;;;14.59;72.34;96041.59;4975021;28;20372;-58
2023/05/03 09:52:15;;;;;;;;;;;22.60;49.40;;;14.88;71.24;96036.28;4983909;28;20434;-56
2023/05/03 09:54:42;;;;;;;;;;;22.60;49.20;;;15.15;70.30;96026.94;5002082;28;19909;-57
2023/05/03 09:57:08;;;;;;;;;;;22.80;49.10;;;15.50;68.74;96021.22;5010142;28;19935;-55
2023/05/03 09:59:38;;;;;;;;;;;22.90;49.00;;;15.24;68.57;96044.84;5004118;28;19944;-55
2023/05/03 10:02:06;;;;;;;;;;;23.10;48.50;;;15.26;67.06;96042.69;5012319;28;19913;-57
2023/05/03 10:04:43;;;;;;;;;;;23.20;48.10;;;15.57;65.58;96031.63;5000490;28;20311;-56
2023/05/03 10:07:16;;;;;;;;;;;23.30;47.80;;;15.81;66.62;96031.66;4998830;28;19909;-56
2023/05/03 10:09:46;;;;;;;;;;;23.40;47.60;;;15.91;66.15;96038.78;5005012;28;20453;-56
2023/05/03 10:12:15;;;;;;;;;;;23.60;47.70;;;15.76;67.56;96030.91;4998730;28;19913;-57
2023/05/03 10:14:45;;;;;;;;;;;23.80;47.40;;;16.30;65.72;96032.41;5012662;28;19909;-58
2023/05/03 10:17:25;;;;;;;;;;;23.90;47.40;;;16.48;64.25;96045.03;4985571;28;19909;-59
2023/05/03 10:20:22;;;;;;;;;;;24.20;47.20;;;16.58;62.46;96026.09;5011647;28;19998;-59
2023/05/03 10:23:03;;;;;;;;;;;24.30;46.60;;;16.51;63.23;96030.22;5002374;28;19930;-55
2023/05/03 10:25:34;;;;;;;;;;;24.50;46.80;;;16.92;63.00;96033.09;5012804;28;19915;-59
2023/05/03 10:28:05;;;;;;;;;;;24.60;45.90;;;16.97;62.59;96033.03;5008720;28;19916;-56
2023/05/03 10:30:33;;;;;;;;;;;24.80;45.80;;;16.80;61.91;96025.50;5012044;28;20390;-56
2023/05/03 10:33:20;;;;;;;;;;;24.90;45.50;;;16.27;64.76;96023.03;5010950;28;19908;-53
2023/05/03 10:35:52;;;;;;;;;;;25.00;44.90;;;15.99;63.61;96015.88;4998083;28;20367;-56
2023/05/03 10:38:24;;;;;;;;;;;25.00;44.50;;;16.34;61.34;96019.97;5012556;28;19913;-54
2023/05/03 10:40:53;;;;;;;;;;;25.00;44.40;;;16.53;60.46;96010.00;5000382;28;19909;-55
2023/05/03 10:43:28;;;;;;;;;;;25.10;44.20;;;16.94;60.08;96014.78;5011946;28;19909;-54
2023/05/03 10:46:05;;;;;;;;;;;25.20;44.00;;;16.59;61.16;96003.47;5010197;28;19935;-59
2023/05/03 10:48:32;;;;;;;;;;;25.30;43.90;;;16.58;62.90;96019.91;5012512;28;20433;-59
2023/05/03 10:51:31;;;;;;;;;;;25.30;43.60;;;16.92;59.50;96002.72;5011931;28;19952;-57
2023/05/03 10:53:57;;;;;;;;;;;25.40;43.70;;;17.38;60.07;96016.19;5009543;28;19913;-55
2023/05/03 10:56:23;;;;;;;;;;;25.60;43.60;;;17.48;58.15;95983.66;5012024;28;19923;-59
2023/05/03 10:58:50;;;;;;;;;;;25.70;43.40;;;16.93;59.06;96010.50;5001192;28;19909;-60
2023/05/03 11:01:18;;;;;;;;;;;25.80;42.90;;;17.44;59.71;96003.44;5012085;28;20287;-58
2023/05/03 11:04:39;;;;;;;;;;;25.80;42.80;;;17.47;58.08;95998.25;5011762;28;20439;-56
2023/05/03 11:07:05;;;;;;;;;;;26.00;42.70;;;17.42;57.16;95997.53;5014817;28;19917;-57
2023/05/03 11:09:33;;;;;;;;;;;26.10;42.60;;;17.51;57.82;96009.22;5012164;28;20268;-55
2023/05/03 11:12:04;;;;;;;;;;;26.10;42.30;;;17.63;55.75;96000.66;5010238;28;19913;-56
2023/05/03 11:14:30;;;;;;;;;;;26.20;42.10;;;17.48;56.16;96001.72;5005694;28;19948;-54
2023/05/03 11:16:56;;;;;;;;;;;26.40;42.00;;;17.98;55.42;96009.94;5009348;28;19958;-56
2023/05/03 11:19:23;;;;;;;;;;;26.40;42.00;;;17.83;54.58;96007.56;5000001;28;19909;-59
2023/05/03 11:21:50;;;;;;;;;;;26.70;41.90;;;17.80;56.23;96011.66;5001240;28;19933;-60
2023/05/03 11:24:16;;;;;;;;;;;26.70;41.40;;;18.25;56.31;96011.81;5010048;28;19917;-57